Time;durP1;ratioP1;P1;durP2;ratioP2;P2;SDS_P1;SDS_P2;PMS_P1;PMS_P2;Temp;Humidity;BMP_temperature;BMP_pressure;BME280_temperature;BME280_humidity;BME280_pressure;Samples;Min_cycle;Max_cycle;Signal;HPM_P1;HPM_P2
2021/12/18 06:07:58;;;;;;;0.80;0.47;;;;;;;;;;5071905;27;20604;-75
2021/12/18 06:10:28;;;;;;;0.50;0.20;;;;;;;;;;5071420;28;20198;-76
2021/12/18 06:12:57;;;;;;;1.07;0.63;;;;;;;;;;5069951;28;20199;-75
2021/12/18 06:15:24;;;;;;;0.40;0.40;;;;;;;;;;5072017;28;20730;-76
2021/12/18 06:17:53;;;;;;;1.83;1.43;;;;;;;;;;5070663;28;20218;-75
2021/12/18 06:20:20;;;;;;;1.73;0.83;;;;;;;;;;5072974;28;20736;-76
2021/12/18 06:22:48;;;;;;;1.57;1.13;;;;;;;;;;5085373;28;20678;-77
2021/12/18 06:25:16;;;;;;;1.60;0.60;;;;;;;;;;5084534;28;20209;-78
2021/12/18 06:27:44;;;;;;;0.67;0.00;;;;;;;;;;5075446;28;20297;-77
2021/12/18 06:30:12;;;;;;;0.73;0.53;;;;;;;;;;5076629;28;20212;-78
2021/12/18 06:32:40;;;;;;;2.33;1.07;;;;;;;;;;5071350;28;20205;-77
2021/12/18 06:35:07;;;;;;;1.70;1.50;;;;;;;;;;5071732;28;20199;-78
2021/12/18 06:37:35;;;;;;;2.13;1.13;;;;;;;;;;5076628;28;20226;-78
2021/12/18 06:40:05;;;;;;;0.30;0.30;;;;;;;;;;5072947;28;20202;-78
2021/12/18 08:56:18;;;;;;;0.00;0.00;;;;;;;;;;5067749;27;21098;-74
2021/12/18 08:58:46;;;;;;;0.00;0.00;;;;;;;;;;5052865;28;20195;-74
2021/12/18 09:01:13;;;;;;;0.00;0.00;;;;;;;;;;5053635;28;20287;-73
2021/12/18 09:03:40;;;;;;;0.00;0.00;;;;;;;;;;5051386;28;20218;-73
2021/12/18 09:06:08;;;;;;;0.00;0.00;;;;;;;;;;5054295;28;20230;-74
2021/12/18 09:08:35;;;;;;;0.00;0.00;;;;;;;;;;5054028;28;20209;-75
2021/12/18 09:11:02;;;;;;;0.03;0.03;;;;;;;;;;5053152;28;21032;-74
2021/12/18 09:13:31;;;;;;;1.03;0.30;;;;;;;;;;5049159;28;20202;-72
2021/12/18 09:15:59;;;;;;;0.27;0.27;;;;;;;;;;5047075;28;20202;-72
2021/12/18 09:18:26;;;;;;;0.00;0.00;;;;;;;;;;5052177;28;20293;-74
2021/12/18 09:20:53;;;;;;;0.00;0.00;;;;;;;;;;5057069;28;20195;-74
2021/12/18 09:23:22;;;;;;;0.00;0.00;;;;;;;;;;5052512;28;20202;-75
2021/12/18 09:25:50;;;;;;;0.00;0.00;;;;;;;;;;5055601;28;21138;-73
2021/12/18 09:28:17;;;;;;;0.00;0.00;;;;;;;;;;5051691;28;20713;-76
2021/12/18 09:30:46;;;;;;;0.00;0.00;;;;;;;;;;5053088;28;20228;-77
2021/12/18 09:33:16;;;;;;;0.00;0.00;;;;;;;;;;5051755;28;20973;-75
2021/12/18 09:35:43;;;;;;;0.00;0.00;;;;;;;;;;5052967;28;20195;-77
2021/12/18 09:38:11;;;;;;;0.03;0.03;;;;;;;;;;5051046;28;20676;-73
2021/12/18 09:40:39;;;;;;;0.00;0.00;;;;;;;;;;5053492;28;20199;-76
2021/12/18 09:43:06;;;;;;;0.43;0.43;;;;;;;;;;5053355;28;20205;-76
2021/12/18 09:45:34;;;;;;;0.00;0.00;;;;;;;;;;5054698;28;20238;-74
2021/12/18 09:48:03;;;;;;;0.00;0.00;;;;;;;;;;5054618;28;20199;-75
2021/12/18 09:50:32;;;;;;;0.00;0.00;;;;;;;;;;5055174;28;20196;-75
2021/12/18 09:53:00;;;;;;;0.30;0.30;;;;;;;;;;5055265;28;20202;-76
2021/12/18 09:55:27;;;;;;;0.00;0.00;;;;;;;;;;5052441;28;20230;-76
2021/12/18 09:57:55;;;;;;;0.10;0.10;;;;;;;;;;5053245;28;20203;-77
2021/12/18 10:00:24;;;;;;;0.87;0.53;;;;;;;;;;5051247;28;20222;-76
2021/12/18 10:02:51;;;;;;;5.23;1.03;;;;;;;;;;5050169;28;20247;-77
2021/12/18 10:05:28;;;;;;;0.00;0.00;;;;;;;;;;5055427;28;22066;-73
2021/12/18 10:08:09;;;;;;;0.00;0.00;;;;;;;;;;5036885;28;20203;-74
2021/12/18 10:10:37;;;;;;;0.00;0.00;;;;;;;;;;5039654;28;20595;-75
2021/12/18 10:13:05;;;;;;;0.53;0.37;;;;;;;;;;5037431;28;20207;-75
2021/12/18 10:15:33;;;;;;;0.00;0.00;;;;;;;;;;5035700;28;20700;-75
2021/12/18 10:18:07;;;;;;;0.30;0.30;;;;;;;;;;5039069;28;20200;-73
2021/12/18 10:20:36;;;;;;;4.70;1.67;;;;;;;;;;5034798;28;20694;-73
2021/12/18 10:23:05;;;;;;;0.53;0.53;;;;;;;;;;5034878;28;20287;-73
2021/12/18 10:25:34;;;;;;;1.40;1.40;;;;;;;;;;5038558;28;20283;-74
2021/12/18 10:28:08;;;;;;;0.00;0.00;;;;;;;;;;5038334;28;21405;-75
2021/12/18 10:30:35;;;;;;;0.10;0.10;;;;;;;;;;5035835;28;20208;-74
2021/12/18 10:33:05;;;;;;;0.40;0.40;;;;;;;;;;5036263;28;20204;-74
2021/12/18 10:35:48;;;;;;;0.53;0.53;;;;;;;;;;5037853;28;20802;-73
2021/12/18 10:38:34;;;;;;;0.00;0.00;;;;;;;;;;5039352;28;20755;-73
2021/12/18 10:41:02;;;;;;;0.00;0.00;;;;;;;;;;5039333;28;20205;-74
2021/12/18 10:43:49;;;;;;;0.27;0.27;;;;;;;;;;5037478;28;20660;-74
2021/12/18 10:46:19;;;;;;;0.00;0.00;;;;;;;;;;5040739;28;20200;-72
2021/12/18 10:48:55;;;;;;;0.00;0.00;;;;;;;;;;5038752;28;20580;-76
2021/12/18 10:51:25;;;;;;;0.07;0.07;;;;;;;;;;5038646;28;20199;-77
2021/12/18 10:53:53;;;;;;;0.00;0.00;;;;;;;;;;5039589;28;20203;-72
2021/12/18 10:56:32;;;;;;;0.00;0.00;;;;;;;;;;5034337;28;20249;-74
2021/12/18 10:58:59;;;;;;;0.03;0.03;;;;;;;;;;5035125;28;20907;-78
2021/12/18 11:01:28;;;;;;;0.00;0.00;;;;;;;;;;5040373;28;20204;-78
2021/12/18 11:03:55;;;;;;;0.00;0.00;;;;;;;;;;5039719;28;20661;-75
2021/12/18 11:06:25;;;;;;;0.00;0.00;;;;;;;;;;5046476;28;20565;-78
2021/12/18 11:09:05;;;;;;;0.60;0.60;;;;;;;;;;5040633;28;20219;-78
2021/12/18 11:14:19;;;;;;;0.00;0.00;;;;;;;;;;5035209;28;20290;-78
2021/12/18 11:16:48;;;;;;;0.20;0.00;;;;;;;;;;5040216;28;20230;-76
2021/12/18 11:19:16;;;;;;;0.00;0.00;;;;;;;;;;5035121;28;20664;-72
2021/12/18 11:21:48;;;;;;;0.00;0.00;;;;;;;;;;5031976;28;20208;-74
2021/12/18 11:24:16;;;;;;;0.00;0.00;;;;;;;;;;5030508;28;20211;-79
2021/12/18 11:26:46;;;;;;;0.00;0.00;;;;;;;;;;5031718;28;20215;-76
2021/12/18 11:29:15;;;;;;;0.00;0.00;;;;;;;;;;5036581;28;20627;-76
2021/12/18 11:31:43;;;;;;;0.00;0.00;;;;;;;;;;5038699;28;20198;-76
2021/12/18 11:34:11;;;;;;;0.00;0.00;;;;;;;;;;5036797;28;20199;-76
2021/12/18 11:36:42;;;;;;;0.00;0.00;;;;;;;;;;5037882;28;20230;-75
2021/12/18 11:39:11;;;;;;;0.00;0.00;;;;;;;;;;5039813;28;20203;-77
2021/12/18 11:41:40;;;;;;;0.00;0.00;;;;;;;;;;5037582;28;20211;-70
2021/12/18 11:44:22;;;;;;;0.00;0.00;;;;;;;;;;5033248;28;20218;-74
2021/12/18 11:46:49;;;;;;;0.00;0.00;;;;;;;;;;5029392;28;20212;-74
2021/12/18 11:49:19;;;;;;;0.07;0.07;;;;;;;;;;5029637;28;20198;-73
2021/12/18 11:51:58;;;;;;;0.00;0.00;;;;;;;;;;5029070;28;20203;-72
2021/12/18 11:54:44;;;;;;;0.00;0.00;;;;;;;;;;5034201;28;20233;-76
2021/12/18 11:57:11;;;;;;;0.13;0.10;;;;;;;;;;5037767;28;20200;-75
2021/12/18 11:59:39;;;;;;;0.00;0.00;;;;;;;;;;5036828;28;20204;-71
2021/12/18 12:02:07;;;;;;;0.23;0.23;;;;;;;;;;5036479;28;20206;-76
2021/12/18 12:04:58;;;;;;;0.00;0.00;;;;;;;;;;5040690;28;20195;-77
2021/12/18 12:07:27;;;;;;;0.00;0.00;;;;;;;;;;5021130;28;20311;-76
2021/12/18 12:10:11;;;;;;;0.17;0.17;;;;;;;;;;5037338;28;20203;-73
2021/12/18 12:12:49;;;;;;;0.00;0.00;;;;;;;;;;5037547;28;20277;-72
2021/12/18 12:15:18;;;;;;;0.00;0.00;;;;;;;;;;5034196;28;20227;-75
2021/12/18 12:17:54;;;;;;;0.10;0.10;;;;;;;;;;5033529;28;20585;-72
2021/12/18 12:20:37;;;;;;;0.00;0.00;;;;;;;;;;5033237;28;20208;-77
2021/12/18 12:23:04;;;;;;;3.13;0.47;;;;;;;;;;5037413;28;20218;-76
2021/12/18 12:25:47;;;;;;;0.50;0.27;;;;;;;;;;5035719;28;20200;-75
2021/12/18 12:28:16;;;;;;;0.00;0.00;;;;;;;;;;5030415;28;20211;-76
2021/12/18 12:30:46;;;;;;;0.10;0.10;;;;;;;;;;5034609;28;20211;-75
2021/12/18 12:33:22;;;;;;;0.00;0.00;;;;;;;;;;5033128;28;20214;-75
2021/12/18 12:35:54;;;;;;;0.00;0.00;;;;;;;;;;5031177;28;20231;-75
2021/12/18 12:38:23;;;;;;;0.30;0.30;;;;;;;;;;5029217;28;20207;-73
2021/12/18 12:40:53;;;;;;;0.53;0.40;;;;;;;;;;5029527;28;20208;-72
2021/12/18 12:43:23;;;;;;;0.00;0.00;;;;;;;;;;5026433;28;20210;-73
2021/12/18 12:45:52;;;;;;;0.00;0.00;;;;;;;;;;5033563;28;20665;-74
2021/12/18 12:48:21;;;;;;;0.00;0.00;;;;;;;;;;5035668;28;20215;-76
2021/12/18 12:50:58;;;;;;;0.00;0.00;;;;;;;;;;5028652;28;20683;-73
2021/12/18 12:53:41;;;;;;;0.33;0.33;;;;;;;;;;5029246;28;20203;-74
2021/12/18 12:56:16;;;;;;;0.00;0.00;;;;;;;;;;5031214;28;20302;-73
2021/12/18 12:58:44;;;;;;;0.00;0.00;;;;;;;;;;5031238;28;20203;-72
2021/12/18 13:01:11;;;;;;;0.00;0.00;;;;;;;;;;5029544;28;20207;-75
2021/12/18 13:03:39;;;;;;;0.00;0.00;;;;;;;;;;5029566;28;20231;-74
2021/12/18 13:06:15;;;;;;;0.00;0.00;;;;;;;;;;5031759;28;20204;-75
2021/12/18 13:08:44;;;;;;;0.10;0.10;;;;;;;;;;5029332;28;20210;-79
2021/12/18 13:11:17;;;;;;;0.40;0.40;;;;;;;;;;5032403;28;20253;-71
2021/12/18 13:13:45;;;;;;;0.00;0.00;;;;;;;;;;5031020;28;20216;-72
2021/12/18 13:16:14;;;;;;;0.00;0.00;;;;;;;;;;5034533;28;20228;-74
2021/12/18 13:18:44;;;;;;;0.13;0.13;;;;;;;;;;5033527;28;20207;-72
2021/12/18 13:21:14;;;;;;;0.00;0.00;;;;;;;;;;5032335;28;20188;-74
2021/12/18 13:23:49;;;;;;;0.00;0.00;;;;;;;;;;5027225;28;20204;-72
2021/12/18 13:26:18;;;;;;;0.00;0.00;;;;;;;;;;5029158;28;20214;-77
2021/12/18 13:28:54;;;;;;;0.00;0.00;;;;;;;;;;5027322;28;20286;-75
2021/12/18 13:31:22;;;;;;;0.00;0.00;;;;;;;;;;5028243;28;20672;-68
2021/12/18 13:33:54;;;;;;;0.00;0.00;;;;;;;;;;5025661;28;20234;-72
2021/12/18 13:36:22;;;;;;;0.47;0.40;;;;;;;;;;5037647;28;20229;-73
2021/12/18 13:38:50;;;;;;;0.13;0.10;;;;;;;;;;5028348;28;20219;-73
2021/12/18 13:41:19;;;;;;;0.30;0.00;;;;;;;;;;5031339;28;20206;-74
2021/12/18 13:43:55;;;;;;;0.00;0.00;;;;;;;;;;5032035;28;20207;-75
2021/12/18 13:46:29;;;;;;;0.00;0.00;;;;;;;;;;5033070;28;20681;-73
2021/12/18 13:48:56;;;;;;;0.00;0.00;;;;;;;;;;5033128;28;20576;-75
2021/12/18 13:51:25;;;;;;;0.30;0.30;;;;;;;;;;5036387;28;20207;-76
2021/12/18 13:53:54;;;;;;;0.00;0.00;;;;;;;;;;5042228;28;21697;-74
2021/12/18 13:56:22;;;;;;;0.57;0.20;;;;;;;;;;5036800;28;20238;-74
2021/12/18 13:58:50;;;;;;;0.00;0.00;;;;;;;;;;5034261;28;20219;-76
2021/12/18 14:01:18;;;;;;;0.00;0.00;;;;;;;;;;5032117;28;20210;-70
2021/12/18 14:03:49;;;;;;;0.00;0.00;;;;;;;;;;5033989;28;20215;-72
2021/12/18 14:06:19;;;;;;;0.00;0.00;;;;;;;;;;5032679;28;20219;-73
2021/12/18 14:08:47;;;;;;;0.00;0.00;;;;;;;;;;5033295;28;20208;-74
2021/12/18 14:11:15;;;;;;;3.67;0.40;;;;;;;;;;5036133;28;20564;-74
2021/12/18 14:13:47;;;;;;;0.00;0.00;;;;;;;;;;5033870;28;20215;-73
2021/12/18 14:16:15;;;;;;;0.00;0.00;;;;;;;;;;5036687;28;22207;-74
2021/12/18 14:18:47;;;;;;;0.30;0.13;;;;;;;;;;5033054;28;20670;-81
2021/12/18 14:21:17;;;;;;;0.00;0.00;;;;;;;;;;5032822;28;20196;-72
2021/12/18 14:23:45;;;;;;;0.77;0.77;;;;;;;;;;5036834;28;20227;-77
2021/12/18 14:26:21;;;;;;;0.63;0.63;;;;;;;;;;5043112;28;20203;-77
2021/12/18 14:28:49;;;;;;;0.10;0.10;;;;;;;;;;5044684;28;20211;-74
2021/12/18 14:31:26;;;;;;;0.00;0.00;;;;;;;;;;5041850;28;20207;-74
2021/12/18 14:33:54;;;;;;;0.20;0.20;;;;;;;;;;5036783;28;20282;-74
2021/12/18 14:36:36;;;;;;;0.00;0.00;;;;;;;;;;5033814;28;20235;-75
2021/12/18 14:39:05;;;;;;;0.00;0.00;;;;;;;;;;5035977;28;20204;-78
2021/12/18 14:41:35;;;;;;;0.53;0.10;;;;;;;;;;5029326;28;20215;-77
2021/12/18 14:44:05;;;;;;;0.00;0.00;;;;;;;;;;5035266;28;21922;-77
2021/12/18 14:46:33;;;;;;;0.00;0.00;;;;;;;;;;5034401;28;20199;-78
2021/12/18 14:49:09;;;;;;;0.00;0.00;;;;;;;;;;5032810;28;20728;-75
2021/12/18 14:51:37;;;;;;;0.20;0.10;;;;;;;;;;5036741;28;20207;-73
2021/12/18 14:54:07;;;;;;;1.60;1.07;;;;;;;;;;5032175;28;22061;-69
2021/12/18 14:56:34;;;;;;;0.00;0.00;;;;;;;;;;5034193;28;20259;-71
2021/12/18 14:59:01;;;;;;;0.20;0.20;;;;;;;;;;5034833;28;20200;-72
2021/12/18 15:01:29;;;;;;;0.10;0.10;;;;;;;;;;5026668;28;21084;-72
2021/12/18 15:03:57;;;;;;;0.20;0.20;;;;;;;;;;5024562;28;20204;-71
2021/12/18 15:06:25;;;;;;;0.00;0.00;;;;;;;;;;5026933;28;20210;-72
2021/12/18 15:08:56;;;;;;;1.07;0.93;;;;;;;;;;5024281;28;20208;-75
2021/12/18 15:11:26;;;;;;;0.43;0.40;;;;;;;;;;5026137;28;20241;-74
2021/12/18 15:13:55;;;;;;;0.70;0.70;;;;;;;;;;5030624;28;20207;-71
2021/12/18 15:16:33;;;;;;;0.40;0.40;;;;;;;;;;5032282;28;20223;-74
2021/12/18 15:19:02;;;;;;;0.00;0.00;;;;;;;;;;5039401;28;20984;-71
2021/12/18 15:21:30;;;;;;;0.00;0.00;;;;;;;;;;5034677;28;20219;-71
2021/12/18 15:23:58;;;;;;;0.20;0.20;;;;;;;;;;5041422;28;20207;-72
2021/12/18 15:26:27;;;;;;;0.53;0.53;;;;;;;;;;5031456;28;20200;-72
2021/12/18 15:28:54;;;;;;;0.47;0.47;;;;;;;;;;5026669;28;20700;-74
2021/12/18 15:31:22;;;;;;;0.00;0.00;;;;;;;;;;5028619;28;20195;-71
2021/12/18 15:33:49;;;;;;;0.10;0.10;;;;;;;;;;5026570;28;21229;-67
2021/12/18 15:36:17;;;;;;;0.00;0.00;;;;;;;;;;5028499;28;20231;-70
2021/12/18 15:38:44;;;;;;;0.77;0.77;;;;;;;;;;5026670;28;20211;-70
2021/12/18 15:41:12;;;;;;;0.87;0.73;;;;;;;;;;5024168;28;20234;-70
2021/12/18 15:43:43;;;;;;;0.20;0.20;;;;;;;;;;5026892;28;20350;-74
2021/12/18 15:46:11;;;;;;;0.00;0.00;;;;;;;;;;5021853;28;20218;-77
2021/12/18 15:48:39;;;;;;;0.50;0.50;;;;;;;;;;5026797;28;20214;-71
2021/12/18 15:51:06;;;;;;;0.47;0.47;;;;;;;;;;5027983;28;20204;-73
2021/12/18 15:53:34;;;;;;;3.03;0.87;;;;;;;;;;5037815;28;20211;-70
2021/12/18 15:56:01;;;;;;;0.53;0.53;;;;;;;;;;5041322;28;20227;-74
2021/12/18 15:58:28;;;;;;;0.00;0.00;;;;;;;;;;5035325;28;20639;-76
2021/12/18 16:00:57;;;;;;;0.20;0.20;;;;;;;;;;5033612;28;20203;-74
2021/12/18 16:03:25;;;;;;;0.00;0.00;;;;;;;;;;5033782;28;20238;-73
2021/12/18 16:05:52;;;;;;;0.00;0.00;;;;;;;;;;5028741;28;20208;-73
2021/12/18 16:08:20;;;;;;;0.00;0.00;;;;;;;;;;5029508;28;20212;-74
2021/12/18 16:10:48;;;;;;;0.27;0.27;;;;;;;;;;5032222;28;20200;-73
2021/12/18 16:13:15;;;;;;;0.67;0.67;;;;;;;;;;5035688;28;20211;-73
2021/12/18 16:15:43;;;;;;;0.20;0.20;;;;;;;;;;5032421;28;20200;-74
2021/12/18 16:18:12;;;;;;;0.00;0.00;;;;;;;;;;5030474;28;20869;-73
2021/12/18 16:20:41;;;;;;;0.00;0.00;;;;;;;;;;5030582;28;20592;-73
2021/12/18 16:23:08;;;;;;;0.00;0.00;;;;;;;;;;5032690;28;20192;-75
2021/12/18 16:25:36;;;;;;;0.10;0.10;;;;;;;;;;5031680;28;20216;-73
2021/12/18 16:28:04;;;;;;;0.73;0.73;;;;;;;;;;5037244;28;21941;-74
2021/12/18 16:30:32;;;;;;;1.90;1.20;;;;;;;;;;5028916;28;20196;-73
2021/12/18 16:33:00;;;;;;;0.17;0.17;;;;;;;;;;5032110;28;20210;-73
2021/12/18 16:35:29;;;;;;;0.37;0.00;;;;;;;;;;5029011;28;20569;-74
2021/12/18 16:38:06;;;;;;;0.43;0.43;;;;;;;;;;5031761;28;20227;-74
2021/12/18 16:40:34;;;;;;;0.00;0.00;;;;;;;;;;5033149;28;20548;-70
2021/12/18 16:43:01;;;;;;;2.83;1.90;;;;;;;;;;5034201;28;20226;-75
2021/12/18 16:45:29;;;;;;;0.00;0.00;;;;;;;;;;5036191;28;20577;-73
2021/12/18 16:47:56;;;;;;;0.10;0.10;;;;;;;;;;5035661;28;20202;-73
2021/12/18 16:50:24;;;;;;;0.00;0.00;;;;;;;;;;5033460;28;20564;-74
2021/12/18 16:52:53;;;;;;;0.00;0.00;;;;;;;;;;5032846;28;20460;-70
2021/12/18 16:55:21;;;;;;;0.67;0.67;;;;;;;;;;5037463;28;20235;-73
2021/12/18 16:57:48;;;;;;;0.30;0.30;;;;;;;;;;5029987;28;20721;-71
2021/12/18 17:00:16;;;;;;;1.23;0.80;;;;;;;;;;5030271;28;20203;-71
2021/12/18 17:02:44;;;;;;;0.00;0.00;;;;;;;;;;5033619;28;20199;-73
2021/12/18 17:05:11;;;;;;;1.20;0.37;;;;;;;;;;5033172;28;20445;-72
2021/12/18 17:07:39;;;;;;;0.60;0.37;;;;;;;;;;5033338;28;20212;-71
2021/12/18 17:10:09;;;;;;;0.23;0.23;;;;;;;;;;5029951;28;20212;-73
2021/12/18 17:12:37;;;;;;;0.00;0.00;;;;;;;;;;5033315;28;20200;-74
2021/12/18 17:15:05;;;;;;;0.03;0.03;;;;;;;;;;5032023;28;20232;-72
2021/12/18 17:17:33;;;;;;;0.00;0.00;;;;;;;;;;5041814;28;20727;-73
2021/12/18 17:20:00;;;;;;;1.93;1.50;;;;;;;;;;5036777;28;20200;-73
2021/12/18 17:22:27;;;;;;;0.10;0.10;;;;;;;;;;5035701;28;20204;-72
2021/12/18 17:24:55;;;;;;;0.17;0.17;;;;;;;;;;5035165;28;20204;-72
2021/12/18 17:27:24;;;;;;;0.00;0.00;;;;;;;;;;5037107;28;20207;-73
2021/12/18 17:29:51;;;;;;;0.00;0.00;;;;;;;;;;5034662;28;20210;-73
2021/12/18 17:32:19;;;;;;;0.00;0.00;;;;;;;;;;5034932;28;20215;-70
2021/12/18 17:34:46;;;;;;;0.77;0.60;;;;;;;;;;5035981;28;20204;-74
2021/12/18 17:37:15;;;;;;;1.47;0.37;;;;;;;;;;5032631;28;20227;-70
2021/12/18 17:39:43;;;;;;;2.17;0.90;;;;;;;;;;5034226;28;20572;-73
2021/12/18 17:42:11;;;;;;;0.27;0.27;;;;;;;;;;5037154;28;20257;-73
2021/12/18 17:44:40;;;;;;;0.47;0.47;;;;;;;;;;5034964;28;20630;-72
2021/12/18 17:47:08;;;;;;;0.10;0.10;;;;;;;;;;5037050;28;20214;-71
2021/12/18 17:49:35;;;;;;;0.10;0.10;;;;;;;;;;5036386;28;20206;-71
2021/12/18 17:52:03;;;;;;;0.00;0.00;;;;;;;;;;5033779;28;20304;-73
2021/12/18 17:54:30;;;;;;;0.00;0.00;;;;;;;;;;5034078;28;20285;-72
2021/12/18 17:56:57;;;;;;;0.00;0.00;;;;;;;;;;5035883;28;20675;-74
2021/12/18 17:59:25;;;;;;;0.40;0.40;;;;;;;;;;5036273;28;20569;-75
2021/12/18 18:01:53;;;;;;;0.00;0.00;;;;;;;;;;5035873;28;20204;-73
2021/12/18 18:04:21;;;;;;;0.20;0.20;;;;;;;;;;5032821;28;20202;-71
2021/12/18 18:06:48;;;;;;;0.90;0.90;;;;;;;;;;5035592;28;20195;-74
2021/12/18 18:09:17;;;;;;;2.03;1.33;;;;;;;;;;5034382;28;20806;-71
2021/12/18 18:11:45;;;;;;;0.83;0.40;;;;;;;;;;5037119;28;20302;-76
2021/12/18 18:14:12;;;;;;;0.00;0.00;;;;;;;;;;5035004;28;20211;-74
2021/12/18 18:16:40;;;;;;;0.00;0.00;;;;;;;;;;5034333;28;20212;-73
2021/12/18 18:19:09;;;;;;;0.03;0.03;;;;;;;;;;5036810;28;20222;-70
2021/12/18 18:21:37;;;;;;;0.30;0.30;;;;;;;;;;5034149;28;20206;-71
2021/12/18 18:24:04;;;;;;;0.10;0.10;;;;;;;;;;5035734;28;20984;-71
2021/12/18 18:26:32;;;;;;;0.10;0.10;;;;;;;;;;5034620;28;20299;-74
2021/12/18 18:28:59;;;;;;;0.00;0.00;;;;;;;;;;5033637;28;20203;-72
2021/12/18 18:31:27;;;;;;;1.03;0.33;;;;;;;;;;5032681;28;20223;-72
2021/12/18 18:33:54;;;;;;;0.93;0.60;;;;;;;;;;5037575;28;20192;-72
2021/12/18 18:36:23;;;;;;;0.27;0.27;;;;;;;;;;5042837;28;20204;-74
2021/12/18 18:38:50;;;;;;;0.00;0.00;;;;;;;;;;5042560;28;20219;-72
2021/12/18 18:41:17;;;;;;;0.00;0.00;;;;;;;;;;5045040;28;20938;-73
2021/12/18 18:43:48;;;;;;;0.17;0.13;;;;;;;;;;5041616;28;20207;-71
2021/12/18 18:46:22;;;;;;;0.00;0.00;;;;;;;;;;5039350;28;20230;-72
2021/12/18 18:48:50;;;;;;;0.00;0.00;;;;;;;;;;5038013;28;20204;-73
2021/12/18 18:51:18;;;;;;;0.00;0.00;;;;;;;;;;5033605;28;20330;-76
2021/12/18 18:53:47;;;;;;;0.00;0.00;;;;;;;;;;5036125;28;20210;-75
2021/12/18 18:56:15;;;;;;;0.00;0.00;;;;;;;;;;5035873;28;20210;-73
2021/12/18 18:58:42;;;;;;;1.33;1.30;;;;;;;;;;5032824;28;20232;-69
2021/12/18 19:01:11;;;;;;;0.00;0.00;;;;;;;;;;5032121;28;20203;-71
2021/12/18 19:03:38;;;;;;;0.00;0.00;;;;;;;;;;5038862;28;20269;-72
2021/12/18 19:06:06;;;;;;;0.00;0.00;;;;;;;;;;5041790;28;20204;-71
2021/12/18 19:08:33;;;;;;;0.00;0.00;;;;;;;;;;5037150;28;21656;-72
2021/12/18 20:16:50;;;;;;;0.00;0.00;;;;;;;;;;5065360;27;21120;-71
2021/12/18 20:19:18;;;;;;;0.00;0.00;;;;;;;;;;5049550;28;20225;-70
2021/12/18 20:21:45;;;;;;;0.57;0.57;;;;;;;;;;5049852;28;20231;-75
2021/12/18 20:24:13;;;;;;;0.00;0.00;;;;;;;;;;5049550;28;20205;-74
2021/12/18 20:26:40;;;;;;;0.00;0.00;;;;;;;;;;5048305;28;20237;-72
2021/12/18 20:31:45;;;;;;;0.47;0.47;;;;;;;;;;5183036;22;20227;-74
2021/12/18 20:34:14;;;;;;;0.00;0.00;;;;;;;;;;5031530;28;20199;-72
2021/12/18 20:36:43;;;;;;;0.00;0.00;;;;;;;;;;5024708;28;20280;-74
2021/12/18 20:39:10;;;;;;;0.00;0.00;;;;;;;;;;5021666;28;20212;-72
2021/12/18 20:41:38;;;;;;;0.00;0.00;;;;;;;;;;5024766;28;20204;-69
2021/12/18 20:44:06;;;;;;;0.00;0.00;;;;;;;;;;5026752;28;20208;-75
2021/12/18 20:46:34;;;;;;;0.00;0.00;;;;;;;;;;5017663;28;20239;-76
2021/12/18 20:49:03;;;;;;;0.00;0.00;;;;;;;;;;5014739;28;20219;-76
2021/12/18 20:51:33;;;;;;;0.10;0.10;;;;;;;;;;5015621;28;20205;-76
2021/12/18 20:54:00;;;;;;;0.40;0.10;;;;;;;;;;5014608;28;20200;-76
2021/12/18 20:56:28;;;;;;;0.00;0.00;;;;;;;;;;5017689;28;20278;-74
2021/12/18 20:58:55;;;;;;;0.00;0.00;;;;;;;;;;5023920;28;20201;-76
2021/12/18 21:01:23;;;;;;;0.00;0.00;;;;;;;;;;5023516;28;21674;-76
2021/12/18 21:03:50;;;;;;;0.00;0.00;;;;;;;;;;5024650;28;20688;-77
2021/12/18 21:06:18;;;;;;;0.47;0.40;;;;;;;;;;5024382;28;20208;-76
2021/12/18 21:08:47;;;;;;;0.00;0.00;;;;;;;;;;5019993;28;20220;-71
2021/12/18 21:11:17;;;;;;;0.00;0.00;;;;;;;;;;5017434;28;20199;-73
2021/12/18 21:13:44;;;;;;;0.00;0.00;;;;;;;;;;5016310;28;20204;-75
2021/12/18 21:16:12;;;;;;;0.00;0.00;;;;;;;;;;5013321;28;20229;-76
2021/12/18 21:18:40;;;;;;;0.00;0.00;;;;;;;;;;5013059;28;20209;-75
2021/12/18 21:21:08;;;;;;;0.00;0.00;;;;;;;;;;5014370;28;20221;-77
2021/12/18 21:23:36;;;;;;;0.00;0.00;;;;;;;;;;5010858;28;20208;-75
2021/12/18 21:26:06;;;;;;;1.13;0.47;;;;;;;;;;5004975;28;20213;-75
2021/12/18 21:28:33;;;;;;;0.00;0.00;;;;;;;;;;4993373;28;20779;-74
2021/12/18 21:31:01;;;;;;;0.33;0.33;;;;;;;;;;4992549;28;20241;-74
2021/12/18 21:33:30;;;;;;;0.00;0.00;;;;;;;;;;4993569;28;20255;-75
2021/12/18 21:38:44;;;;;;;0.00;0.00;;;;;;;;;;4995683;28;20212;-73
2021/12/18 21:41:18;;;;;;;0.00;0.00;;;;;;;;;;4993932;28;20974;-75
2021/12/18 21:43:46;;;;;;;0.00;0.00;;;;;;;;;;4993742;28;20205;-76
2021/12/18 21:46:13;;;;;;;0.00;0.00;;;;;;;;;;4993697;28;20418;-75
2021/12/18 21:48:41;;;;;;;0.30;0.30;;;;;;;;;;4994010;28;20189;-77
2021/12/18 21:51:09;;;;;;;0.10;0.10;;;;;;;;;;4997855;28;20209;-76
2021/12/18 21:53:36;;;;;;;1.33;1.10;;;;;;;;;;4999428;28;20217;-75
2021/12/18 21:56:04;;;;;;;0.50;0.50;;;;;;;;;;5001585;28;20233;-77
2021/12/18 21:58:33;;;;;;;0.10;0.10;;;;;;;;;;5000777;28;20216;-71
2021/12/18 22:01:01;;;;;;;0.00;0.00;;;;;;;;;;4999401;28;20214;-71
2021/12/18 22:03:29;;;;;;;0.03;0.03;;;;;;;;;;5000394;28;20204;-76
2021/12/18 22:05:57;;;;;;;0.00;0.00;;;;;;;;;;4993577;28;20197;-73
2021/12/18 22:08:24;;;;;;;0.00;0.00;;;;;;;;;;4993435;28;20205;-75
2021/12/18 22:10:54;;;;;;;0.00;0.00;;;;;;;;;;4992054;28;20684;-76
2021/12/18 22:13:22;;;;;;;0.00;0.00;;;;;;;;;;4993833;28;20609;-76
2021/12/18 22:15:52;;;;;;;0.00;0.00;;;;;;;;;;4995091;28;20687;-74
2021/12/18 22:18:19;;;;;;;0.00;0.00;;;;;;;;;;4994373;28;20208;-76
2021/12/18 22:20:46;;;;;;;0.00;0.00;;;;;;;;;;5000288;28;20204;-74
2021/12/18 22:23:15;;;;;;;0.00;0.00;;;;;;;;;;5002069;28;20247;-75
2021/12/18 22:25:43;;;;;;;0.00;0.00;;;;;;;;;;4999321;28;20205;-73
2021/12/18 22:28:11;;;;;;;0.00;0.00;;;;;;;;;;5000194;28;20197;-74
2021/12/18 22:30:39;;;;;;;0.00;0.00;;;;;;;;;;4999422;28;20320;-75
2021/12/18 22:33:08;;;;;;;0.00;0.00;;;;;;;;;;4999549;28;20584;-73
2021/12/18 22:35:35;;;;;;;0.00;0.00;;;;;;;;;;5001321;28;20230;-75
2021/12/18 22:38:03;;;;;;;0.00;0.00;;;;;;;;;;4999933;28;20267;-74
2021/12/18 22:40:31;;;;;;;0.00;0.00;;;;;;;;;;5000214;28;20212;-75
2021/12/18 22:42:58;;;;;;;0.00;0.00;;;;;;;;;;4998675;28;20212;-75
2021/12/18 22:45:25;;;;;;;2.80;0.90;;;;;;;;;;4999816;28;21081;-72
2021/12/18 22:47:55;;;;;;;0.00;0.00;;;;;;;;;;4999838;28;20201;-72
2021/12/18 22:50:24;;;;;;;0.00;0.00;;;;;;;;;;4999208;28;20262;-75
2021/12/18 22:52:52;;;;;;;0.10;0.10;;;;;;;;;;5000216;28;20204;-73
2021/12/18 22:55:19;;;;;;;0.00;0.00;;;;;;;;;;5001270;28;20581;-74
2021/12/18 22:57:47;;;;;;;0.00;0.00;;;;;;;;;;4998415;28;20205;-74
2021/12/18 23:00:38;;;;;;;1.40;0.30;;;;;;;;;;4998969;28;20206;-75
2021/12/18 23:03:05;;;;;;;0.00;0.00;;;;;;;;;;4999536;28;20208;-74
2021/12/18 23:05:34;;;;;;;0.00;0.00;;;;;;;;;;5000635;28;20201;-73
2021/12/18 23:08:02;;;;;;;0.00;0.00;;;;;;;;;;4997542;28;20209;-77
2021/12/18 23:10:29;;;;;;;0.67;0.10;;;;;;;;;;4999041;28;20300;-75
2021/12/18 23:13:26;;;;;;;0.00;0.00;;;;;;;;;;5000029;28;20204;-73
2021/12/18 23:15:54;;;;;;;0.00;0.00;;;;;;;;;;4999050;28;20247;-74
2021/12/18 23:18:25;;;;;;;0.30;0.30;;;;;;;;;;4999073;28;20203;-74
2021/12/18 23:20:55;;;;;;;0.00;0.00;;;;;;;;;;4999465;28;20213;-74
2021/12/18 23:23:25;;;;;;;0.00;0.00;;;;;;;;;;4999052;28;20201;-74
2021/12/18 23:25:54;;;;;;;0.00;0.00;;;;;;;;;;4998629;28;20208;-73
2021/12/18 23:28:23;;;;;;;0.00;0.00;;;;;;;;;;4998363;28;20252;-74
2021/12/18 23:30:51;;;;;;;0.00;0.00;;;;;;;;;;5000404;28;20229;-74
2021/12/18 23:33:20;;;;;;;0.00;0.00;;;;;;;;;;5000817;28;20221;-74
2021/12/18 23:35:48;;;;;;;0.00;0.00;;;;;;;;;;4997844;28;20236;-73
2021/12/18 23:38:18;;;;;;;0.00;0.00;;;;;;;;;;4998459;28;20209;-74
2021/12/18 23:40:46;;;;;;;2.23;0.67;;;;;;;;;;4999463;28;20670;-76
2021/12/18 23:43:29;;;;;;;0.00;0.00;;;;;;;;;;4998213;28;20789;-75
2021/12/18 23:48:41;;;;;;;0.00;0.00;;;;;;;;;;4998737;28;20243;-74
2021/12/18 23:51:09;;;;;;;0.00;0.00;;;;;;;;;;4998870;28;20216;-77
2021/12/18 23:53:37;;;;;;;0.00;0.00;;;;;;;;;;4999530;28;20212;-75
2021/12/18 23:56:05;;;;;;;0.00;0.00;;;;;;;;;;4998873;28;20233;-76
2021/12/18 23:58:33;;;;;;;0.00;0.00;;;;;;;;;;4998827;28;20624;-77
